Time;durP1;ratioP1;P1;durP2;ratioP2;P2;SDS_P1;SDS_P2;PMS_P1;PMS_P2;Temp;Humidity;BMP_temperature;BMP_pressure;BME280_temperature;BME280_humidity;BME280_pressure;Samples;Min_cycle;Max_cycle;Signal;HPM_P1;HPM_P2
2022/06/11 00:02:04;;;;;;;1.67;1.50;;;;;;;12.80;68.61;101186.13;1778531;80;21370;-77
2022/06/11 00:04:43;;;;;;;3.22;1.47;;;;;;;12.75;68.60;101184.14;1765878;80;21527;-77
2022/06/11 00:07:13;;;;;;;2.55;1.70;;;;;;;12.72;68.68;101181.15;1769070;80;21026;-78
2022/06/11 00:09:41;;;;;;;2.40;1.50;;;;;;;12.67;68.79;101179.59;1752684;80;23089;-77
2022/06/11 00:12:12;;;;;;;3.70;1.60;;;;;;;12.65;68.90;101182.72;1769717;80;20999;-77
2022/06/11 00:14:41;;;;;;;2.72;1.87;;;;;;;12.65;69.21;101180.08;1762741;80;21046;-80
2022/06/11 00:17:12;;;;;;;2.58;1.40;;;;;;;12.63;69.08;101182.75;1770614;80;21050;-77
2022/06/11 00:19:41;;;;;;;1.42;1.32;;;;;;;12.57;69.09;101181.64;1772776;80;21047;-78
2022/06/11 00:22:09;;;;;;;2.43;1.80;;;;;;;12.54;69.20;101179.12;1771148;80;21122;-77
2022/06/11 00:24:36;;;;;;;5.97;1.63;;;;;;;12.49;69.24;101181.03;1771874;80;21075;-77
2022/06/11 00:27:06;;;;;;;3.45;1.50;;;;;;;12.49;69.47;101184.98;1757139;80;21034;-77
2022/06/11 00:29:36;;;;;;;3.35;2.05;;;;;;;12.43;69.40;101180.77;1763844;80;21573;-78
2022/06/11 00:32:06;;;;;;;;;;;;;;;12.40;69.62;101187.91;1764684;80;21046;-79
2022/06/11 00:34:34;;;;;;;1.37;1.25;;;;;;;12.37;69.96;101194.59;1761708;80;21063;-79
2022/06/11 00:37:03;;;;;;;3.67;1.80;;;;;;;12.35;70.00;101193.30;1764167;80;21007;-78
2022/06/11 00:39:36;;;;;;;1.80;1.60;;;;;;;12.33;70.03;101196.43;1769117;80;20994;-77
2022/06/11 00:42:11;;;;;;;4.37;1.97;;;;;;;12.32;70.19;101191.23;1761403;80;21033;-79
2022/06/11 00:44:38;;;;;;;2.77;1.80;;;;;;;12.31;70.26;101194.78;1687086;83;21339;-77
2022/06/11 00:47:17;;;;;;;2.27;1.40;;;;;;;12.25;70.28;101195.84;1682339;83;21532;-78
2022/06/11 00:49:55;;;;;;;3.73;1.93;;;;;;;12.20;70.27;101203.00;1679225;83;21019;-78
2022/06/11 00:52:37;;;;;;;4.53;1.60;;;;;;;12.15;70.43;101204.45;1679998;83;21000;-77
2022/06/11 00:55:18;;;;;;;2.13;1.70;;;;;;;12.13;70.46;101206.25;1686958;83;21546;-79
2022/06/11 00:57:50;;;;;;;3.77;1.90;;;;;;;12.08;70.46;101204.67;1764487;81;21020;-80
2022/06/11 01:00:23;;;;;;;4.23;1.87;;;;;;;12.03;70.63;101206.15;1758844;80;22733;-77
2022/06/11 01:02:51;;;;;;;2.80;1.73;;;;;;;12.00;70.70;101208.41;1773092;80;20992;-77
2022/06/11 01:05:31;;;;;;;3.93;1.87;;;;;;;11.98;71.00;101206.27;1770473;80;21052;-77
2022/06/11 01:08:14;;;;;;;2.50;1.80;;;;;;;11.97;71.13;101200.63;1757617;80;21001;-77
2022/06/11 01:11:06;;;;;;;2.90;2.03;;;;;;;11.95;71.28;101197.64;1749287;80;20999;-77
2022/06/11 01:13:48;;;;;;;2.23;1.80;;;;;;;11.92;71.31;101197.73;1782343;80;21122;-77
2022/06/11 01:16:26;;;;;;;5.25;1.80;;;;;;;11.97;71.91;101203.25;1778646;80;20947;-78
2022/06/11 01:19:31;;;;;;;1.93;1.80;;;;;;;11.97;71.68;101198.00;1780150;80;21022;-77
2022/06/11 01:22:22;;;;;;;2.83;2.10;;;;;;;11.93;71.43;101202.92;1782304;80;20987;-77
2022/06/11 01:25:19;;;;;;;2.27;2.07;;;;;;;11.83;71.52;101192.23;1772924;80;21073;-77
2022/06/11 01:28:37;;;;;;;3.00;2.13;;;;;;;11.80;71.64;101190.55;1763975;80;21082;-77
2022/06/11 01:31:12;;;;;;;2.87;1.97;;;;;;;11.78;72.24;101188.45;1773167;80;21007;-80
2022/06/11 01:34:09;;;;;;;3.23;2.07;;;;;;;11.82;71.96;101189.22;1781630;80;21520;-77
2022/06/11 01:36:41;;;;;;;2.33;1.97;;;;;;;11.77;72.09;101191.96;1780612;80;21011;-77
2022/06/11 01:39:19;;;;;;;2.40;2.20;;;;;;;11.70;71.95;101184.34;1782266;80;21429;-77
2022/06/11 01:41:55;;;;;;;2.37;2.17;;;;;;;11.64;71.83;101188.00;1782668;80;21163;-78
2022/06/11 01:44:27;;;;;;;4.13;2.20;;;;;;;11.56;71.93;101190.84;1755815;80;21074;-77
2022/06/11 01:46:57;;;;;;;3.33;2.20;;;;;;;11.54;72.18;101184.76;1751103;80;20995;-77
2022/06/11 01:49:32;;;;;;;2.53;1.97;;;;;;;11.52;72.26;101189.19;1772514;80;21467;-78
2022/06/11 01:52:48;;;;;;;4.03;2.30;;;;;;;11.53;72.45;101192.24;1740211;80;21037;-77
2022/06/11 01:55:45;;;;;;;4.50;2.37;;;;;;;11.49;72.26;101193.67;1753979;80;21327;-80
2022/06/11 01:58:42;;;;;;;3.43;2.33;;;;;;;11.37;72.09;101185.70;1749268;80;21509;-77
2022/06/11 02:01:36;;;;;;;2.93;2.30;;;;;;;11.29;72.05;101187.21;1720370;81;21098;-78
2022/06/11 02:04:32;;;;;;;3.40;2.20;;;;;;;11.28;72.59;101184.19;1706715;81;21070;-80
2022/06/11 02:07:31;;;;;;;3.63;2.10;;;;;;;11.31;72.93;101186.73;1718371;82;21236;-77
2022/06/11 02:10:09;;;;;;;2.17;1.97;;;;;;;11.31;72.92;101189.35;1642065;83;21129;-77
2022/06/11 02:12:54;;;;;;;2.93;2.20;;;;;;;11.25;72.64;101187.33;1704266;82;21051;-77
2022/06/11 02:15:26;;;;;;;3.07;2.40;;;;;;;11.17;72.59;101187.56;1725158;82;21044;-79
2022/06/11 02:17:58;;;;;;;3.80;2.20;;;;;;;11.14;72.90;101189.81;1729024;82;21078;-78
2022/06/11 02:20:36;;;;;;;4.83;2.13;;;;;;;11.15;73.08;101187.59;1725607;82;21295;-77
2022/06/11 02:23:20;;;;;;;3.33;2.00;;;;;;;11.13;72.95;101187.22;1728115;82;21155;-84
2022/06/11 02:25:55;;;;;;;2.23;2.00;;;;;;;11.06;72.73;101185.67;1721313;82;21059;-77
2022/06/11 02:28:28;;;;;;;2.90;2.13;;;;;;;11.05;72.91;101187.87;1701996;82;21606;-77
2022/06/11 02:31:00;;;;;;;3.60;2.00;;;;;;;11.06;72.89;101189.61;1640458;84;21595;-77
2022/06/11 02:33:31;;;;;;;3.93;2.60;;;;;;;11.06;73.40;101189.61;1717219;82;21597;-77
2022/06/11 02:36:07;;;;;;;2.50;2.00;;;;;;;11.11;73.28;101194.26;1736570;82;21134;-77
2022/06/11 02:38:34;;;;;;;2.57;2.00;;;;;;;11.07;73.06;101192.63;1666002;82;21046;-77
2022/06/11 02:41:09;;;;;;;3.70;2.10;;;;;;;11.00;72.97;101193.68;1736464;82;21075;-82
2022/06/11 02:43:38;;;;;;;5.10;2.47;;;;;;;10.92;73.09;101192.14;1719672;80;21058;-77
2022/06/11 02:48:55;;;;;;;2.30;2.10;;;;;;;10.88;73.30;101190.48;1732584;81;21713;-77
2022/06/11 02:51:26;;;;;;;3.75;2.00;;;;;;;10.88;73.59;101195.72;1732313;82;21480;-77
2022/06/11 02:53:53;;;;;;;3.13;2.13;;;;;;;10.90;73.86;101193.07;1732527;82;21053;-77
2022/06/11 02:56:20;;;;;;;3.67;2.17;;;;;;;10.90;73.91;101192.62;1741592;82;21036;-77
2022/06/11 02:58:48;;;;;;;2.53;2.33;;;;;;;10.90;73.80;101192.62;1702688;82;21031;-77
2022/06/11 03:01:16;;;;;;;4.60;2.37;;;;;;;10.88;73.97;101189.16;1744477;79;21219;-78
2022/06/11 03:03:44;;;;;;;2.87;2.57;;;;;;;10.92;74.05;101196.53;1747292;80;21016;-78
2022/06/11 03:06:11;;;;;;;4.27;2.17;;;;;;;10.91;74.17;101198.26;1734558;81;21051;-80
2022/06/11 03:08:40;;;;;;;5.90;2.67;;;;;;;10.92;74.14;101202.63;1734357;81;20994;-77
2022/06/11 03:11:08;;;;;;;2.87;2.30;;;;;;;10.92;74.28;101204.39;1717865;79;21611;-78
2022/06/11 03:13:35;;;;;;;5.23;2.40;;;;;;;10.91;74.20;101203.50;1765155;81;21286;-78
2022/06/11 03:16:03;;;;;;;3.80;2.27;;;;;;;10.90;74.35;101204.42;1739780;81;20981;-77
2022/06/11 03:18:30;;;;;;;3.50;2.30;;;;;;;10.88;74.31;101208.84;1720365;79;21569;-77
2022/06/11 03:20:57;;;;;;;4.03;2.60;;;;;;;10.86;74.45;101209.77;1748695;81;21079;-79
2022/06/11 03:23:26;;;;;;;4.20;2.37;;;;;;;10.90;74.92;101212.74;1734343;81;20996;-77
2022/06/11 03:25:54;;;;;;;2.93;2.40;;;;;;;10.95;74.99;101216.12;1734325;81;21079;-78
2022/06/11 03:28:26;;;;;;;3.93;2.57;;;;;;;10.99;74.89;101220.83;1743282;81;21490;-80
2022/06/11 03:30:55;;;;;;;6.37;2.70;;;;;;;10.96;74.86;101218.28;1764873;81;21090;-78
2022/06/11 03:33:24;;;;;;;5.90;2.83;;;;;;;10.97;75.20;101216.06;1731064;79;21427;-78
2022/06/11 03:35:53;;;;;;;2.67;2.40;;;;;;;11.02;75.36;101214.19;1766715;81;21035;-78
2022/06/11 03:38:21;;;;;;;4.50;2.77;;;;;;;11.02;75.18;101215.50;1721263;79;21067;-77
2022/06/11 03:40:48;;;;;;;6.63;2.93;;;;;;;11.03;75.38;101215.89;1735190;81;21553;-78
2022/06/11 03:43:16;;;;;;;6.17;2.70;;;;;;;11.08;75.59;101211.39;1752936;81;21031;-79
2022/06/11 03:45:44;;;;;;;3.23;2.50;;;;;;;11.13;75.83;101216.93;1743867;81;21051;-79
2022/06/11 03:48:12;;;;;;;4.87;2.87;;;;;;;11.21;76.08;101215.42;1748585;81;21055;-78
2022/06/11 03:50:40;;;;;;;4.13;2.87;;;;;;;11.28;76.03;101219.62;1762177;81;21116;-78
2022/06/11 03:53:10;;;;;;;4.00;2.70;;;;;;;11.34;76.10;101222.07;1765034;81;21029;-78
2022/06/11 03:55:39;;;;;;;4.25;2.85;;;;;;;11.42;76.19;101214.00;1740417;81;21091;-77
2022/06/11 03:58:09;;;;;;;5.00;2.67;;;;;;;11.53;76.33;101225.52;1748357;81;21016;-76
2022/06/11 04:03:24;;;;;;;4.60;2.70;;;;;;;11.72;76.28;101224.52;1748833;81;21227;-79
2022/06/11 04:05:53;;;;;;;2.37;2.17;;;;;;;11.79;76.17;101227.39;1758949;79;21004;-76
2022/06/11 04:08:23;;;;;;;3.33;2.50;;;;;;;11.85;76.11;101225.89;1764862;81;21042;-86
2022/06/11 04:10:52;;;;;;;3.30;2.30;;;;;;;11.93;76.11;101224.39;1764239;81;21007;-84
2022/06/11 04:13:21;;;;;;;2.47;2.27;;;;;;;12.03;76.31;101225.86;1764604;81;21040;-85
2022/06/11 04:15:49;;;;;;;5.73;2.80;;;;;;;12.16;76.49;101221.92;1758525;79;21105;-87
2022/06/11 04:18:36;;;;;;;3.47;2.47;;;;;;;12.30;76.45;101225.45;1761996;81;21016;-79
2022/06/11 04:21:08;;;;;;;3.37;2.52;;;;;;;12.39;76.45;101223.01;1763711;81;21040;-86
2022/06/11 04:23:38;;;;;;;3.80;2.80;;;;;;;12.51;76.68;101221.30;1766134;81;21098;-86
2022/06/11 04:26:11;;;;;;;2.80;2.30;;;;;;;12.64;76.70;101224.40;1764772;81;21143;-86
2022/06/11 04:28:40;;;;;;;3.52;2.95;;;;;;;12.75;76.37;101223.59;1749912;79;21910;-84
2022/06/11 04:31:09;;;;;;;3.45;2.92;;;;;;;12.84;76.45;101226.37;1765953;79;21555;-84
2022/06/11 04:33:38;;;;;;;4.15;3.02;;;;;;;12.94;76.57;101226.02;1761737;79;21494;-86
2022/06/11 04:36:06;;;;;;;4.72;2.80;;;;;;;13.04;76.63;101221.75;1759936;79;21032;-87
2022/06/11 04:38:34;;;;;;;3.92;2.92;;;;;;;13.16;76.62;101222.63;1763485;81;21526;-86
2022/06/11 04:41:04;;;;;;;4.22;3.12;;;;;;;13.25;76.37;101221.48;1765455;80;21039;-84
2022/06/11 04:43:31;;;;;;;4.70;2.62;;;;;;;13.29;76.27;101221.33;1765075;81;21055;-88
2022/06/11 04:45:58;;;;;;;3.12;2.80;;;;;;;13.35;76.27;101223.73;1763834;81;20985;-86
2022/06/11 04:48:25;;;;;;;4.20;2.80;;;;;;;13.45;76.42;101224.75;1765546;81;21446;-86
2022/06/11 04:50:53;;;;;;;3.52;2.75;;;;;;;13.56;76.30;101227.85;1765946;81;20992;-85
2022/06/11 04:53:20;;;;;;;4.90;2.90;;;;;;;13.64;76.07;101221.84;1765313;81;21490;-86
2022/06/11 04:55:47;;;;;;;5.00;2.98;;;;;;;13.70;76.11;101221.62;1758732;79;21025;-79
2022/06/11 04:58:15;;;;;;;5.10;3.17;;;;;;;13.79;76.27;101221.27;1760505;79;21048;-86
2022/06/11 05:00:42;;;;;;;5.17;2.90;;;;;;;13.90;76.51;101226.14;1762907;80;21541;-84
2022/06/11 05:03:09;;;;;;;6.40;3.35;;;;;;;13.99;76.20;101232.37;1769071;79;21034;-85
2022/06/11 05:05:37;;;;;;;3.35;2.70;;;;;;;14.06;76.00;101229.06;1780644;80;22017;-82
2022/06/11 05:08:05;;;;;;;5.08;3.17;;;;;;;14.16;75.98;101230.87;1772196;80;21442;-87
2022/06/11 05:10:37;;;;;;;4.03;3.00;;;;;;;14.25;75.87;101230.53;1775113;80;21003;-87
2022/06/11 05:13:07;;;;;;;3.92;2.98;;;;;;;14.37;75.91;101234.45;1772069;80;20992;-84
2022/06/11 05:15:41;;;;;;;7.65;3.50;;;;;;;14.47;75.85;101228.76;1775747;80;20980;-85
2022/06/11 05:18:09;;;;;;;6.42;4.15;;;;;;;14.58;75.66;101236.28;1772506;80;21207;-81
2022/06/11 05:20:36;;;;;;;7.33;3.37;;;;;;;14.64;75.49;101234.70;1773455;80;21565;-86
2022/06/11 05:23:05;;;;;;;5.00;3.85;;;;;;;14.75;75.53;101241.33;1772356;79;21113;-81
2022/06/11 05:25:35;;;;;;;5.47;3.30;;;;;;;14.83;75.34;101237.45;1774630;80;20976;-85
2022/06/11 05:28:03;;;;;;;;;;;;;;;14.95;75.49;101242.67;1769042;80;21038;-80
2022/06/11 05:30:32;;;;;;;4.90;3.45;;;;;;;15.05;75.40;101236.09;1775168;80;21790;-87
2022/06/11 05:33:00;;;;;;;3.65;2.95;;;;;;;15.14;75.18;101233.05;1766632;79;21316;-80
2022/06/11 05:35:32;;;;;;;5.20;3.12;;;;;;;15.24;75.03;101242.78;1756896;79;21007;-85
2022/06/11 05:38:03;;;;;;;4.08;3.17;;;;;;;15.35;75.09;101237.00;1744813;80;21074;-87
2022/06/11 05:40:35;;;;;;;5.42;3.30;;;;;;;15.47;74.93;101239.59;1746161;80;21048;-89
2022/06/11 05:43:02;;;;;;;5.87;3.27;;;;;;;15.56;74.90;101239.17;1762226;80;21935;-83
2022/06/11 05:45:35;;;;;;;4.30;3.20;;;;;;;15.67;74.78;101236.06;1742654;80;21544;-81
2022/06/11 05:48:04;;;;;;;3.58;2.58;;;;;;;15.78;74.73;101235.14;1745129;80;20954;-81
2022/06/11 05:50:36;;;;;;;4.55;2.77;;;;;;;15.87;74.62;101229.89;1750067;80;21024;-91
2022/06/11 05:53:06;;;;;;;5.60;3.55;;;;;;;15.97;74.53;101235.16;1762669;79;21048;-89
2022/06/11 05:55:38;;;;;;;5.25;2.72;;;;;;;16.05;74.24;101236.98;1747670;80;21143;-80
2022/06/11 05:58:10;;;;;;;5.05;2.80;;;;;;;16.15;74.09;101234.75;1749656;80;21659;-85
2022/06/11 06:00:38;;;;;;;4.60;2.45;;;;;;;16.24;73.85;101243.60;1746250;80;21032;-81
2022/06/11 06:03:06;;;;;;;4.12;2.60;;;;;;;16.34;73.76;101246.18;1745681;80;21051;-80
2022/06/11 06:05:34;;;;;;;4.92;2.58;;;;;;;16.44;73.71;101241.32;1744758;80;21015;-88
2022/06/11 06:08:02;;;;;;;5.03;2.60;;;;;;;16.56;73.63;101251.77;1766703;80;21129;-90
2022/06/11 06:10:29;;;;;;;5.10;2.60;;;;;;;16.65;73.41;101244.23;1765749;80;21024;-83
2022/06/11 06:12:56;;;;;;;3.02;2.30;;;;;;;16.77;73.09;101247.27;1754500;80;20951;-93
2022/06/11 06:15:27;;;;;;;4.35;2.60;;;;;;;16.87;73.03;101245.38;1759566;80;21557;-88
2022/06/11 06:17:55;;;;;;;3.85;2.22;;;;;;;16.99;73.04;101241.73;1751453;80;21425;-91
2022/06/11 06:20:24;;;;;;;5.00;2.25;;;;;;;17.23;72.56;101236.51;1761084;80;21086;-89
2022/06/11 06:22:51;;;;;;;3.15;2.25;;;;;;;17.23;72.56;101236.51;1740874;79;21680;-88
2022/06/11 06:25:21;;;;;;;3.15;2.25;;;;;;;17.42;72.50;101240.86;1751880;80;21041;-90
2022/06/11 06:27:48;;;;;;;4.35;2.30;;;;;;;17.59;72.32;101240.35;1749446;80;28139;-91
2022/06/11 06:30:15;;;;;;;3.15;2.52;;;;;;;17.76;71.94;101245.23;1756424;80;21015;-87
2022/06/11 06:32:42;;;;;;;4.35;2.52;;;;;;;17.87;71.41;101240.70;1755017;80;21916;-92
2022/06/11 06:35:10;;;;;;;5.40;2.47;;;;;;;18.01;70.99;101250.09;1768574;79;20996;-92
2022/06/11 06:37:37;;;;;;;2.85;2.47;;;;;;;18.11;70.56;101246.48;1776729;80;21007;-88
2022/06/11 06:40:06;;;;;;;3.62;2.10;;;;;;;18.21;70.32;101251.67;1776362;79;21027;-82
2022/06/11 06:42:33;;;;;;;3.72;2.20;;;;;;;18.32;69.89;101247.07;1761823;80;21046;-81
2022/06/11 06:45:01;;;;;;;4.70;2.22;;;;;;;18.40;69.57;101251.03;1771262;80;21114;-82
2022/06/11 06:47:28;;;;;;;3.33;2.20;;;;;;;18.50;69.38;101253.53;1762164;80;20997;-79
2022/06/11 06:49:55;;;;;;;3.42;2.05;;;;;;;18.64;69.10;101250.57;1739389;80;21144;-79
2022/06/11 06:52:23;;;;;;;2.27;1.80;;;;;;;18.76;68.86;101252.57;1770308;79;21012;-85
2022/06/11 06:54:50;;;;;;;2.72;1.82;;;;;;;18.90;68.66;101255.28;1776593;80;20980;-83
2022/06/11 06:57:17;;;;;;;3.58;2.30;;;;;;;19.03;68.29;101257.20;1775399;80;22018;-86
2022/06/11 06:59:44;;;;;;;2.50;1.85;;;;;;;19.14;67.92;101255.61;1761173;80;21035;-84
2022/06/11 07:02:13;;;;;;;4.60;2.02;;;;;;;19.25;67.53;101250.99;1772941;80;21433;-83
2022/06/11 07:04:40;;;;;;;3.87;1.80;;;;;;;19.37;67.17;101256.03;1767236;80;21082;-83
2022/06/11 07:07:10;;;;;;;3.65;1.90;;;;;;;19.45;66.62;101248.94;1776641;80;21077;-83
2022/06/11 07:09:37;;;;;;;3.33;1.82;;;;;;;19.54;66.19;101253.72;1765890;80;21117;-83
2022/06/11 07:12:05;;;;;;;4.50;1.42;;;;;;;19.61;65.48;101245.72;1776579;80;21066;-83
2022/06/11 07:14:32;;;;;;;3.22;1.70;;;;;;;19.74;65.28;101250.70;1755447;80;21051;-80
2022/06/11 07:17:05;;;;;;;4.30;1.60;;;;;;;19.86;65.00;101243.76;1750121;80;21030;-82
2022/06/11 07:19:43;;;;;;;5.85;1.80;;;;;;;19.99;64.51;101246.52;1776766;80;21493;-81
2022/06/11 07:22:21;;;;;;;3.72;1.70;;;;;;;20.11;64.36;101243.06;1747300;79;21113;-83
2022/06/11 07:24:49;;;;;;;3.75;1.90;;;;;;;20.21;63.91;101247.34;1731665;80;20992;-83
2022/06/11 07:27:21;;;;;;;2.52;1.65;;;;;;;20.31;63.48;101250.25;1761369;80;20951;-84
2022/06/11 07:30:12;;;;;;;2.62;1.60;;;;;;;20.38;62.68;101243.59;1765130;80;20988;-83
2022/06/11 07:32:43;;;;;;;1.65;1.30;;;;;;;20.43;62.36;101246.33;1756929;80;21023;-82
2022/06/11 07:35:15;;;;;;;2.37;1.20;;;;;;;20.47;61.26;101241.65;1773862;79;21078;-80
2022/06/11 07:37:43;;;;;;;2.75;1.37;;;;;;;20.51;60.88;101245.84;1776473;80;21050;-84
2022/06/11 07:40:12;;;;;;;3.70;1.80;;;;;;;20.54;60.40;101236.34;1777149;80;20999;-83
2022/06/11 07:42:39;;;;;;;2.55;1.95;;;;;;;20.61;60.11;101238.11;1774428;80;21004;-83
2022/06/11 07:45:07;;;;;;;3.87;1.60;;;;;;;20.67;59.83;101241.25;1767015;80;21466;-83
2022/06/11 07:50:33;;;;;;;3.33;1.80;;;;;;;20.82;59.34;101235.84;1767282;80;20979;-79
2022/06/11 07:53:03;;;;;;;4.30;1.65;;;;;;;20.90;59.24;101233.53;1762870;80;20981;-83
2022/06/11 07:55:31;;;;;;;1.82;1.45;;;;;;;20.97;58.82;101237.47;1752605;80;20995;-83
2022/06/11 07:57:59;;;;;;;5.35;2.02;;;;;;;21.03;58.35;101238.38;1761533;80;21033;-83
2022/06/11 08:00:32;;;;;;;2.77;1.60;;;;;;;21.10;57.83;101231.69;1761276;80;21744;-84
2022/06/11 08:02:59;;;;;;;3.35;1.70;;;;;;;21.18;57.45;101231.66;1762785;80;21017;-84
2022/06/11 08:05:26;;;;;;;2.17;1.47;;;;;;;21.26;57.33;101237.32;1761312;80;21037;-84
2022/06/11 08:07:54;;;;;;;3.45;1.40;;;;;;;21.34;56.56;101237.66;1771428;80;21062;-83
2022/06/11 08:10:24;;;;;;;2.47;1.60;;;;;;;21.41;56.42;101238.95;1773007;80;21081;-84
2022/06/11 08:12:51;;;;;;;3.95;1.35;;;;;;;21.48;56.23;101234.06;1752394;80;21098;-85
2022/06/11 08:15:19;;;;;;;7.03;1.92;;;;;;;21.59;55.97;101239.02;1773151;80;21490;-83
2022/06/11 08:17:47;;;;;;;4.03;1.85;;;;;;;21.66;55.42;101241.23;1776535;80;21075;-83
2022/06/11 08:20:21;;;;;;;5.08;1.75;;;;;;;21.72;54.87;101236.80;1762412;80;20994;-82
2022/06/11 08:22:49;;;;;;;4.97;1.37;;;;;;;21.78;54.79;101237.69;1753393;80;20994;-84
2022/06/11 08:25:17;;;;;;;6.03;1.75;;;;;;;21.82;54.21;101232.04;1750365;80;21122;-83
2022/06/11 08:27:45;;;;;;;3.47;1.40;;;;;;;21.88;53.97;101232.09;1761356;80;21528;-84
2022/06/11 08:30:16;;;;;;;11.95;1.90;;;;;;;21.98;53.74;101239.81;1750894;80;20995;-85
2022/06/11 08:32:43;;;;;;;3.25;1.22;;;;;;;22.07;53.26;101238.78;1771404;80;21101;-84
2022/06/11 08:35:12;;;;;;;3.50;1.25;;;;;;;22.14;52.65;101236.91;1772177;80;20976;-85
2022/06/11 08:37:41;;;;;;;4.12;1.40;;;;;;;22.22;51.83;101239.87;1745068;79;21904;-85
2022/06/11 08:40:32;;;;;;;3.02;0.93;;;;;;;22.26;51.11;101233.84;1762624;80;21046;-85
2022/06/11 08:43:13;;;;;;;5.03;1.50;;;;;;;22.33;50.90;101236.91;1775738;80;20994;-84
2022/06/11 08:45:53;;;;;;;2.10;0.85;;;;;;;22.46;50.36;101231.04;1738751;79;21027;-85
2022/06/11 08:48:41;;;;;;;6.47;0.98;;;;;;;22.53;49.26;101224.30;1742286;79;21023;-85
2022/06/11 08:51:25;;;;;;;6.37;1.62;;;;;;;22.61;49.29;101219.69;1747128;80;22306;-85
2022/06/11 08:53:57;;;;;;;4.92;1.92;;;;;;;22.80;49.41;101222.69;1753474;80;21485;-84
2022/06/11 08:56:57;;;;;;;3.90;1.47;;;;;;;22.92;49.02;101223.59;1761736;80;20984;-85
2022/06/11 08:59:54;;;;;;;4.33;1.62;;;;;;;22.97;48.94;101224.11;1662172;84;21613;-85
2022/06/11 09:02:53;;;;;;;3.15;1.30;;;;;;;23.04;48.53;101216.00;1661380;83;21082;-85
2022/06/11 09:05:42;;;;;;;;;;;;;;;23.13;48.38;101211.27;1681593;84;21154;-84
2022/06/11 09:08:33;;;;;;;2.75;1.30;;;;;;;23.43;48.10;101210.36;1678967;84;20201;-85
2022/06/11 09:11:27;;;;;;;4.17;1.50;;;;;;;23.69;48.44;101213.15;1665122;84;21527;-85
2022/06/11 09:14:21;;;;;;;6.92;1.50;;;;;;;23.90;47.98;101203.94;1655029;84;21035;-84
2022/06/11 09:17:11;;;;;;;3.35;1.27;;;;;;;24.11;47.61;101205.84;1689950;84;21043;-83
2022/06/11 09:20:21;;;;;;;3.60;1.20;;;;;;;24.22;46.83;101206.69;1684371;84;21128;-84
2022/06/11 09:23:09;;;;;;;5.72;1.60;;;;;;;24.18;46.33;101201.70;1671358;84;21059;-84
2022/06/11 09:26:00;;;;;;;3.92;1.15;;;;;;;24.25;46.05;101200.23;1674259;84;21059;-85
2022/06/11 09:28:49;;;;;;;2.33;1.10;;;;;;;24.34;46.19;101201.30;1669651;84;21577;-85
2022/06/11 09:31:23;;;;;;;4.42;1.32;;;;;;;24.53;46.38;101199.32;1668800;84;21659;-83
2022/06/11 09:34:14;;;;;;;4.05;1.52;;;;;;;24.58;45.88;101197.95;1676992;84;22514;-85
2022/06/11 09:37:16;;;;;;;4.10;1.12;;;;;;;24.51;45.41;101192.73;1766129;80;21054;-84
2022/06/11 09:39:58;;;;;;;5.95;1.95;;;;;;;24.46;44.98;101189.58;1776798;80;20991;-84
2022/06/11 09:42:50;;;;;;;4.35;1.42;;;;;;;24.40;44.82;101186.89;1776524;80;21540;-84
2022/06/11 09:45:38;;;;;;;2.50;1.40;;;;;;;24.46;44.59;101190.92;1773468;79;21081;-84
2022/06/11 09:48:47;;;;;;;3.40;1.15;;;;;;;24.63;44.33;101189.02;1750169;80;21815;-84
2022/06/11 09:51:41;;;;;;;3.55;1.42;;;;;;;24.84;44.28;101186.86;1736086;79;21000;-83
2022/06/11 09:54:29;;;;;;;6.58;1.47;;;;;;;25.09;43.94;101179.75;1761157;79;21479;-84
2022/06/11 09:57:07;;;;;;;2.92;1.27;;;;;;;25.26;43.82;101186.37;1757025;80;21004;-83
2022/06/11 09:59:42;;;;;;;5.92;1.60;;;;;;;25.34;43.35;101174.98;1750881;80;21477;-84
2022/06/11 10:02:28;;;;;;;2.45;1.20;;;;;;;25.30;43.11;101182.46;1761178;80;21047;-84
2022/06/11 10:04:57;;;;;;;3.58;1.30;;;;;;;25.14;42.53;101174.88;1751688;80;21118;-82
2022/06/11 10:07:30;;;;;;;3.45;1.30;;;;;;;25.04;42.37;101177.95;1715239;79;21088;-82
2022/06/11 10:10:08;;;;;;;3.05;1.55;;;;;;;24.95;42.21;101174.73;1755336;81;21075;-81
2022/06/11 10:12:49;;;;;;;3.85;1.35;;;;;;;25.00;42.66;101172.51;1709561;79;21035;-83
2022/06/11 10:15:34;;;;;;;3.17;1.20;;;;;;;25.17;42.32;101174.27;1759140;79;21736;-81
2022/06/11 10:18:12;;;;;;;4.03;1.22;;;;;;;25.33;42.13;101174.60;1742250;79;21553;-77
2022/06/11 10:20:44;;;;;;;4.58;1.02;;;;;;;25.56;42.19;101175.30;1771244;80;21113;-78
2022/06/11 10:23:38;;;;;;;4.10;1.20;;;;;;;25.84;41.87;101176.91;1766671;80;21058;-78
2022/06/11 10:26:28;;;;;;;2.83;1.17;;;;;;;26.14;41.37;101174.64;1767701;80;21058;-78
2022/06/11 10:29:16;;;;;;;3.52;0.98;;;;;;;26.47;41.23;101165.34;1737327;80;21965;-81
2022/06/11 10:32:01;;;;;;;8.48;1.72;;;;;;;26.75;40.71;101168.19;1770290;80;21062;-80
2022/06/11 10:34:29;;;;;;;4.42;1.00;;;;;;;26.85;40.21;101169.00;1760676;80;21019;-80
2022/06/11 10:37:20;;;;;;;2.52;1.10;;;;;;;26.84;39.79;101173.53;1769446;80;21073;-80
2022/06/11 10:39:53;;;;;;;3.62;1.05;;;;;;;26.78;39.60;101170.08;1750167;80;21047;-81
2022/06/11 10:42:28;;;;;;;2.60;0.90;;;;;;;26.83;39.28;101165.13;1742317;79;21538;-78
2022/06/11 10:44:56;;;;;;;5.80;1.17;;;;;;;26.76;39.18;101165.34;1762188;80;21053;-81
2022/06/11 10:47:41;;;;;;;2.47;1.10;;;;;;;26.68;39.00;101163.86;1773191;80;21393;-78
2022/06/11 10:50:22;;;;;;;4.33;1.07;;;;;;;26.70;39.30;101161.38;1769350;79;21610;-81
2022/06/11 10:53:32;;;;;;;3.00;1.10;;;;;;;27.17;39.59;101159.27;1763299;81;21066;-84
2022/06/11 10:56:13;;;;;;;2.22;0.80;;;;;;;27.74;39.40;101157.81;1756858;79;21123;-91
2022/06/11 10:59:01;;;;;;;4.42;1.00;;;;;;;28.34;38.90;101155.96;1749813;81;21055;-78
2022/06/11 11:01:34;;;;;;;3.05;1.17;;;;;;;28.77;38.26;101154.34;1745755;80;21003;-89
2022/06/11 11:04:30;;;;;;;2.08;1.10;;;;;;;29.02;37.68;101152.67;1769009;79;21042;-83
2022/06/11 11:07:21;;;;;;;3.35;1.15;;;;;;;29.38;37.40;101147.13;1750711;81;21034;-91
2022/06/11 11:09:49;;;;;;;1.95;0.78;;;;;;;29.68;36.68;101149.34;1702808;83;21106;-85
2022/06/11 11:12:32;;;;;;;2.77;0.85;;;;;;;29.50;35.84;101142.64;1683276;84;21064;-83
2022/06/11 11:15:16;;;;;;;1.70;0.82;;;;;;;29.13;35.38;101146.52;1693925;83;21067;-91
2022/06/11 11:17:49;;;;;;;2.52;1.15;;;;;;;28.86;35.40;101137.20;1731482;81;21078;-80
2022/06/11 11:20:34;;;;;;;1.85;1.10;;;;;;;28.72;35.52;101141.83;1750609;82;21064;-81
2022/06/11 11:23:19;;;;;;;2.05;0.70;;;;;;;28.96;35.40;101133.91;1748625;80;21118;-86
2022/06/11 11:26:13;;;;;;;3.25;0.80;;;;;;;29.00;35.15;101133.08;1733320;82;38312;-82
2022/06/11 11:28:57;;;;;;;1.95;0.62;;;;;;;29.03;34.68;101130.06;1743959;82;21105;-77
2022/06/11 11:31:28;;;;;;;2.47;0.88;;;;;;;29.08;34.54;101127.77;1743850;82;21047;-78
2022/06/11 11:34:19;;;;;;;1.62;0.60;;;;;;;29.48;34.68;101128.96;1747063;81;21044;-82
2022/06/11 11:36:46;;;;;;;1.52;0.70;;;;;;;29.76;34.17;101130.95;1744069;82;21136;-79
2022/06/11 11:39:19;;;;;;;2.20;0.80;;;;;;;29.72;33.83;101118.79;1745533;82;21485;-81
2022/06/11 11:42:12;;;;;;;3.20;0.80;;;;;;;29.97;33.96;101122.39;1721783;82;21045;-81
2022/06/11 11:44:51;;;;;;;1.87;0.80;;;;;;;29.98;33.57;101115.45;1732003;82;21477;-81
2022/06/11 11:47:37;;;;;;;2.80;0.80;;;;;;;30.05;33.57;101116.16;1746595;82;21083;-82
2022/06/11 11:50:16;;;;;;;2.27;0.80;;;;;;;30.25;33.53;101109.45;1749564;81;21110;-75
2022/06/11 11:52:55;;;;;;;3.25;0.70;;;;;;;30.41;33.33;101104.05;1745433;82;21478;-78
2022/06/11 11:55:30;;;;;;;5.70;0.90;;;;;;;30.49;32.70;101098.30;1729129;82;21331;-77
2022/06/11 11:58:18;;;;;;;2.95;0.85;;;;;;;30.43;33.15;101105.24;1749230;80;21094;-78
2022/06/11 12:01:00;;;;;;;3.07;0.80;;;;;;;30.61;32.78;101103.18;1729705;80;21109;-77
2022/06/11 12:03:51;;;;;;;2.35;0.93;;;;;;;30.65;32.74;101097.78;1740857;80;21114;-79
2022/06/11 12:06:30;;;;;;;2.00;0.78;;;;;;;30.46;32.44;101098.14;1711979;81;21009;-77
2022/06/11 12:08:58;;;;;;;1.70;0.72;;;;;;;30.09;32.63;101098.59;1745321;80;27528;-77
2022/06/11 12:11:33;;;;;;;3.17;1.00;;;;;;;29.74;32.43;101103.27;1773777;80;21050;-84
2022/06/11 12:14:14;;;;;;;2.05;0.75;;;;;;;29.38;32.74;101107.50;1770501;80;21018;-81